createdAt,value
2022-10-28T00:01:17.992Z,98791.00
2022-10-28T00:03:47.571Z,98822.31
2022-10-28T00:06:20.865Z,98802.69
2022-10-28T00:08:48.157Z,98821.56
2022-10-28T00:11:27.347Z,98814.44
2022-10-28T00:13:56.350Z,98816.56
2022-10-28T00:16:26.044Z,98825.56
2022-10-28T00:18:54.357Z,98802.00
2022-10-28T00:21:25.178Z,98826.84
2022-10-28T00:23:52.432Z,98778.94
2022-10-28T00:26:21.837Z,98807.38
2022-10-28T00:28:57.826Z,98812.91
2022-10-28T00:31:26.782Z,98814.41
2022-10-28T00:33:53.741Z,98780.97
2022-10-28T00:36:26.236Z,98749.53
2022-10-28T00:38:54.669Z,98812.03
2022-10-28T00:41:36.929Z,98815.31
2022-10-28T00:44:41.182Z,98797.34
2022-10-28T00:47:16.698Z,98822.91
2022-10-28T00:49:47.720Z,98824.41
2022-10-28T00:52:20.131Z,98834.72
2022-10-28T00:54:47.287Z,98827.50
2022-10-28T00:57:18.603Z,98807.25
2022-10-28T00:59:49.448Z,98819.03
2022-10-28T01:02:16.880Z,98798.94
2022-10-28T01:04:44.280Z,98727.75
2022-10-28T01:07:11.188Z,98805.19
2022-10-28T01:09:40.138Z,98765.22
2022-10-28T01:12:47.280Z,98767.94
2022-10-28T01:15:37.226Z,98786.44
2022-10-28T01:18:25.117Z,98804.84
2022-10-28T01:20:59.808Z,98754.53
2022-10-28T01:23:54.362Z,98801.91
2022-10-28T01:26:43.984Z,98805.19
2022-10-28T01:30:08.105Z,98800.66
2022-10-28T01:32:53.033Z,98795.00
2022-10-28T01:35:20.150Z,98795.69
2022-10-28T01:38:06.070Z,98791.94
2022-10-28T01:40:45.171Z,98769.88
2022-10-28T01:43:26.340Z,98797.56
2022-10-28T01:46:24.962Z,98793.03
2022-10-28T01:48:57.701Z,98747.72
2022-10-28T01:51:35.589Z,98796.41
2022-10-28T01:54:06.799Z,98794.69
2022-10-28T01:56:40.813Z,98783.50
2022-10-28T01:59:12.677Z,98777.06
2022-10-28T02:01:39.525Z,98757.00
2022-10-28T02:04:07.734Z,98716.28
2022-10-28T02:06:34.947Z,98761.72
2022-10-28T02:09:13.784Z,98753.44
2022-10-28T02:12:02.304Z,98737.69
2022-10-28T02:15:00.611Z,98744.91
2022-10-28T02:17:52.242Z,98738.75
2022-10-28T02:20:45.919Z,98736.50
2022-10-28T02:23:45.789Z,98680.94
2022-10-28T02:26:27.259Z,98723.56
2022-10-28T02:29:03.679Z,98730.22
2022-10-28T02:31:42.596Z,98705.25
2022-10-28T02:34:16.048Z,98712.53
2022-10-28T02:36:47.670Z,98701.69
2022-10-28T02:39:17.369Z,98688.53
2022-10-28T02:41:50.833Z,98717.03
2022-10-28T02:44:24.057Z,98668.50
2022-10-28T02:46:53.037Z,98685.78
2022-10-28T02:49:20.119Z,98707.84
2022-10-28T02:51:52.796Z,98702.69
2022-10-28T02:54:24.151Z,98661.53
2022-10-28T02:57:12.324Z,98712.97
2022-10-28T02:59:38.874Z,98684.88
2022-10-28T03:02:05.591Z,98682.88
2022-10-28T03:04:32.248Z,98581.06
2022-10-28T03:06:58.818Z,98661.81
2022-10-28T03:09:25.937Z,98664.28
2022-10-28T03:11:52.633Z,98651.72
2022-10-28T03:14:21.136Z,98665.50
2022-10-28T03:16:50.555Z,98609.88
2022-10-28T03:19:17.299Z,98656.53
2022-10-28T03:21:45.281Z,98696.06
2022-10-28T03:24:11.897Z,98666.69
2022-10-28T03:26:38.657Z,98667.59
2022-10-28T03:29:05.272Z,98701.66
2022-10-28T03:31:31.926Z,98688.84
2022-10-28T03:33:58.503Z,98656.44
2022-10-28T03:36:25.084Z,98639.78
2022-10-28T03:38:51.657Z,98646.63
2022-10-28T03:41:18.223Z,98682.28
2022-10-28T03:43:45.117Z,98681.59
2022-10-28T03:46:11.628Z,98656.44
2022-10-28T03:48:40.083Z,98642.28
2022-10-28T03:51:07.058Z,98683.25
2022-10-28T03:53:33.585Z,98603.28
2022-10-28T03:56:01.871Z,98703.53
2022-10-28T03:58:29.210Z,98654.09
2022-10-28T04:00:56.843Z,98695.13
2022-10-28T04:03:26.126Z,98702.38
2022-10-28T04:05:52.938Z,98690.44
2022-10-28T04:08:19.937Z,98671.50
2022-10-28T04:10:47.697Z,98666.78
2022-10-28T04:13:15.510Z,98708.78
2022-10-28T04:15:42.197Z,98695.44
2022-10-28T04:18:09.025Z,98684.13
2022-10-28T04:20:35.821Z,98680.19
2022-10-28T04:23:02.982Z,98693.84
2022-10-28T04:25:30.053Z,98696.97
2022-10-28T04:27:56.869Z,98566.06
2022-10-28T04:30:25.645Z,98704.41
2022-10-28T04:32:52.552Z,98698.66
2022-10-28T04:35:19.107Z,98635.34
2022-10-28T04:37:45.902Z,98672.03
2022-10-28T04:40:12.711Z,98694.88
2022-10-28T04:42:39.299Z,98701.59
2022-10-28T04:45:06.431Z,98693.72
2022-10-28T04:47:33.030Z,98705.09
2022-10-28T04:50:00.085Z,98642.56
2022-10-28T04:52:26.606Z,98690.28
2022-10-28T04:54:53.302Z,98662.16
2022-10-28T04:57:19.977Z,98649.84
2022-10-28T04:59:47.514Z,98685.00
2022-10-28T05:02:15.382Z,98581.28
2022-10-28T05:04:41.992Z,98603.69
2022-10-28T05:07:09.425Z,98661.22
2022-10-28T05:09:36.096Z,98674.69
2022-10-28T05:12:02.637Z,98648.53
2022-10-28T05:14:29.329Z,98665.94
2022-10-28T05:16:56.017Z,98594.84
2022-10-28T05:19:22.958Z,98619.16
2022-10-28T05:21:49.477Z,98676.94
2022-10-28T05:24:16.025Z,98676.13
2022-10-28T05:26:44.015Z,98642.84
2022-10-28T05:29:10.802Z,98673.22
2022-10-28T05:31:37.364Z,98678.09
2022-10-28T05:34:03.830Z,98675.44
2022-10-28T05:36:30.312Z,98665.13
2022-10-28T05:38:56.818Z,98614.53
2022-10-28T05:41:24.933Z,98669.75
2022-10-28T05:43:52.068Z,98654.13
2022-10-28T05:46:18.678Z,98670.03
2022-10-28T05:48:45.390Z,98623.91
2022-10-28T05:51:13.425Z,98661.03
2022-10-28T05:53:44.208Z,98683.16
2022-10-28T05:56:11.082Z,98666.97
2022-10-28T05:58:37.653Z,98684.13
2022-10-28T06:01:09.461Z,98679.75
2022-10-28T06:03:36.226Z,98673.31
2022-10-28T06:06:02.978Z,98691.44
2022-10-28T06:08:30.778Z,98662.72
2022-10-28T06:10:56.124Z,98659.91
2022-10-28T06:13:23.773Z,98566.00
2022-10-28T06:15:52.073Z,98681.34
2022-10-28T06:18:19.129Z,98723.19
2022-10-28T06:20:56.994Z,98703.44
2022-10-28T06:23:24.963Z,98699.22
2022-10-28T06:26:00.322Z,98650.00
2022-10-28T06:28:27.399Z,98688.22
2022-10-28T06:30:59.706Z,98696.25
2022-10-28T06:33:26.182Z,98716.75
2022-10-28T06:35:56.779Z,98714.28
2022-10-28T06:38:24.756Z,98696.78
2022-10-28T06:40:52.523Z,98711.84
2022-10-28T06:43:20.706Z,98696.34
2022-10-28T06:45:52.142Z,98691.66
2022-10-28T06:48:20.268Z,98682.59
2022-10-28T06:50:46.845Z,98712.84
2022-10-28T06:53:14.501Z,98688.06
2022-10-28T06:55:42.530Z,98736.22
2022-10-28T06:58:10.306Z,98645.72
2022-10-28T07:00:36.950Z,98713.72
2022-10-28T07:03:04.540Z,98718.47
2022-10-28T07:05:32.880Z,98718.50
2022-10-28T07:08:00.491Z,98736.88
2022-10-28T07:10:27.166Z,98724.38
2022-10-28T07:12:54.027Z,98725.38
2022-10-28T07:15:21.898Z,98697.41
2022-10-28T07:17:59.555Z,98734.38
2022-10-28T07:20:27.703Z,98743.38
2022-10-28T07:23:02.234Z,98747.38
2022-10-28T07:25:30.844Z,98725.63
2022-10-28T07:28:00.415Z,98650.03
2022-10-28T07:30:27.716Z,98726.19
2022-10-28T07:32:55.107Z,98705.91
2022-10-28T07:35:22.165Z,98743.44
2022-10-28T07:37:48.643Z,98729.53
2022-10-28T07:40:15.219Z,98750.56
2022-10-28T07:42:42.187Z,98735.78
2022-10-28T07:45:10.047Z,98751.94
2022-10-28T07:47:38.833Z,98737.09
2022-10-28T07:50:11.330Z,98732.91
2022-10-28T07:52:38.777Z,98746.06
2022-10-28T07:55:08.014Z,98705.66
2022-10-28T07:57:35.457Z,98735.06
2022-10-28T08:00:05.164Z,98752.59
2022-10-28T08:02:37.803Z,98728.34
2022-10-28T08:05:05.127Z,98739.53
2022-10-28T08:07:34.875Z,98729.38
2022-10-28T08:10:04.945Z,98752.25
2022-10-28T08:12:32.468Z,98740.59
2022-10-28T08:14:59.657Z,98705.84
2022-10-28T08:17:26.339Z,98699.78
2022-10-28T08:19:52.887Z,98713.78
2022-10-28T08:22:19.453Z,98686.16
2022-10-28T08:24:46.066Z,98716.00
2022-10-28T08:27:12.597Z,98724.84
2022-10-28T08:29:39.188Z,98715.66
2022-10-28T08:32:08.987Z,98754.03
2022-10-28T08:34:38.003Z,98718.81
2022-10-28T08:37:07.677Z,98693.75
2022-10-28T08:39:35.050Z,98648.75
2022-10-28T08:42:23.654Z,98747.38
2022-10-28T08:44:57.221Z,98747.47
2022-10-28T08:47:48.398Z,98743.72
2022-10-28T08:50:18.554Z,98709.44
2022-10-28T08:52:56.831Z,98673.28
2022-10-28T08:55:29.910Z,98750.13
2022-10-28T08:58:10.857Z,98699.53
2022-10-28T09:00:38.597Z,98649.41
2022-10-28T09:03:11.172Z,98746.78
2022-10-28T09:05:39.583Z,98690.28
2022-10-28T09:08:09.179Z,98734.38
2022-10-28T09:10:35.887Z,98743.31
2022-10-28T09:13:57.358Z,98734.09
2022-10-28T09:16:46.339Z,98743.03
2022-10-28T09:19:27.409Z,98735.81
2022-10-28T09:22:29.439Z,98743.81
2022-10-28T09:25:02.141Z,98740.97
2022-10-28T09:27:52.541Z,98743.47
2022-10-28T09:30:36.862Z,98689.88
2022-10-28T09:33:21.992Z,98751.59
2022-10-28T09:35:50.561Z,98733.19
2022-10-28T09:38:19.271Z,98751.09
2022-10-28T09:40:53.253Z,98707.00
2022-10-28T09:43:28.222Z,98722.44
2022-10-28T09:46:00.861Z,98711.84
2022-10-28T09:48:45.559Z,98741.25
2022-10-28T09:51:50.804Z,98751.44
2022-10-28T09:54:27.806Z,98726.13
2022-10-28T09:56:55.003Z,98724.75
2022-10-28T09:59:22.106Z,98703.06
2022-10-28T10:01:50.553Z,98707.81
2022-10-28T10:04:23.188Z,98731.53
2022-10-28T10:06:55.533Z,98722.75
2022-10-28T10:09:26.829Z,98677.91
2022-10-28T10:11:59.706Z,98732.94
2022-10-28T10:14:34.484Z,98733.06
2022-10-28T10:17:06.677Z,98722.91
2022-10-28T10:20:11.550Z,98739.00
2022-10-28T10:22:43.590Z,98724.97
2022-10-28T10:25:19.460Z,98736.28
2022-10-28T10:27:57.523Z,98709.69
2022-10-28T10:30:40.159Z,98709.34
2022-10-28T10:33:35.577Z,98721.28
2022-10-28T10:36:03.908Z,98727.91
2022-10-28T10:38:34.242Z,98734.63
2022-10-28T10:41:01.104Z,98720.84
2022-10-28T10:43:27.501Z,98720.84
2022-10-28T10:46:06.600Z,98712.19
2022-10-28T10:48:36.732Z,98718.44
2022-10-28T10:51:23.806Z,98719.56
2022-10-28T10:53:55.730Z,98643.03
2022-10-28T10:56:32.582Z,98716.59
2022-10-28T10:59:02.973Z,98717.25
2022-10-28T11:01:36.166Z,98690.50
2022-10-28T11:04:08.491Z,98706.56
2022-10-28T11:06:42.330Z,98693.03
2022-10-28T11:09:27.293Z,98714.78
2022-10-28T11:11:56.897Z,98709.88
2022-10-28T11:14:32.645Z,98693.19
2022-10-28T11:17:01.660Z,98689.19
2022-10-28T11:19:36.576Z,98654.94
2022-10-28T11:22:24.832Z,98696.47
2022-10-28T11:25:19.271Z,98687.13
2022-10-28T11:28:16.636Z,98695.91
2022-10-28T11:30:50.418Z,98693.34
2022-10-28T11:33:29.902Z,98650.69
2022-10-28T11:36:02.972Z,98667.59
2022-10-28T11:39:02.014Z,98686.50
2022-10-28T11:41:58.759Z,98679.88
2022-10-28T11:44:47.216Z,98678.16
2022-10-28T11:47:30.953Z,98662.50
2022-10-28T11:50:49.191Z,98669.50
2022-10-28T11:53:32.447Z,98659.69
2022-10-28T11:56:18.186Z,98677.66
2022-10-28T11:58:56.373Z,98655.44
2022-10-28T12:01:26.201Z,98673.75
2022-10-28T12:04:14.538Z,98673.09
2022-10-28T12:07:01.359Z,98676.91
2022-10-28T12:09:52.071Z,98662.38
2022-10-28T12:12:29.182Z,98658.41
2022-10-28T12:15:15.717Z,98651.63
2022-10-28T12:17:52.968Z,98663.31
2022-10-28T12:20:40.150Z,98650.38
2022-10-28T12:23:14.202Z,98641.41
2022-10-28T12:25:43.666Z,98651.09
2022-10-28T12:28:40.740Z,98645.97
2022-10-28T12:31:18.457Z,98647.22
2022-10-28T12:33:51.644Z,98646.41
2022-10-28T12:36:27.656Z,98641.47
2022-10-28T12:39:00.444Z,98657.94
2022-10-28T12:41:43.458Z,98629.13
2022-10-28T12:44:16.280Z,98642.66
2022-10-28T12:47:11.050Z,98647.06
2022-10-28T12:49:52.868Z,98639.50
2022-10-28T12:52:40.807Z,98640.00
2022-10-28T12:57:54.076Z,98626.47
2022-10-28T13:00:28.200Z,98607.59
2022-10-28T13:03:10.937Z,98626.63
2022-10-28T13:06:00.988Z,98627.44
2022-10-28T13:08:44.165Z,98625.22
2022-10-28T13:11:20.638Z,98625.88
2022-10-28T13:13:57.619Z,98617.63
2022-10-28T13:16:46.141Z,98620.66
2022-10-28T13:19:50.878Z,98614.66
2022-10-28T13:25:06.644Z,98620.66
2022-10-28T13:27:33.874Z,98596.09
2022-10-28T13:30:03.035Z,98605.34
2022-10-28T13:32:40.483Z,98624.91
2022-10-28T13:35:20.979Z,98614.25
2022-10-28T13:37:50.926Z,98628.75
2022-10-28T13:40:46.802Z,98635.53
2022-10-28T13:43:21.533Z,98631.41
2022-10-28T13:45:56.507Z,98629.84
2022-10-28T13:48:29.271Z,98628.91
2022-10-28T13:51:16.361Z,98638.09
2022-10-28T13:53:46.282Z,98638.59
2022-10-28T13:56:28.456Z,98634.84
2022-10-28T13:58:59.279Z,98633.63
2022-10-28T14:01:41.597Z,98639.78
2022-10-28T14:04:38.930Z,98639.06
2022-10-28T14:07:20.464Z,98623.41
2022-10-28T14:09:50.129Z,98639.34
2022-10-28T14:12:26.903Z,98636.75
2022-10-28T14:14:59.221Z,98630.22
2022-10-28T14:17:38.382Z,98637.09
2022-10-28T14:20:20.451Z,98610.91
2022-10-28T14:22:47.295Z,98627.88
2022-10-28T14:25:48.551Z,98626.13
2022-10-28T14:28:27.056Z,98635.16
2022-10-28T14:31:09.262Z,98634.69
2022-10-28T14:33:36.634Z,98631.81
2022-10-28T14:36:18.434Z,98609.47
2022-10-28T14:39:03.619Z,98649.84
2022-10-28T14:41:58.132Z,98646.31
2022-10-28T14:45:13.519Z,98639.19
2022-10-28T14:48:17.751Z,98642.19
2022-10-28T14:50:49.609Z,98646.59
2022-10-28T14:53:33.935Z,98630.25
2022-10-28T14:56:08.109Z,98602.66
2022-10-28T14:58:41.704Z,98628.00
2022-10-28T15:01:18.350Z,98639.72
2022-10-28T15:03:52.180Z,98636.41
2022-10-28T15:06:30.132Z,98562.38
2022-10-28T15:09:06.792Z,98617.47
2022-10-28T15:11:34.456Z,98642.13
2022-10-28T15:14:30.825Z,98649.94
2022-10-28T15:17:00.562Z,98649.94
2022-10-28T15:19:34.079Z,98650.47
2022-10-28T15:22:02.624Z,98628.44
2022-10-28T15:24:29.676Z,98659.03
2022-10-28T15:26:56.927Z,98655.19
2022-10-28T15:29:24.773Z,98663.91
2022-10-28T15:32:04.707Z,98641.75
2022-10-28T15:34:32.336Z,98588.56
2022-10-28T15:37:00.328Z,98649.97
2022-10-28T15:39:27.261Z,98652.63
2022-10-28T15:41:54.780Z,98657.31
2022-10-28T15:44:38.573Z,98657.56
2022-10-28T15:47:25.803Z,98656.81
2022-10-28T15:50:21.404Z,98671.78
2022-10-28T15:52:52.041Z,98667.50
2022-10-28T15:55:18.706Z,98667.00
2022-10-28T15:57:49.306Z,98669.16
2022-10-28T16:00:23.464Z,98672.47
2022-10-28T16:02:56.288Z,98684.41
2022-10-28T16:05:43.116Z,98684.16
2022-10-28T16:08:20.344Z,98684.47
2022-10-28T16:10:50.435Z,98688.31
2022-10-28T16:13:36.188Z,98690.47
2022-10-28T16:16:07.803Z,98694.28
2022-10-28T16:18:42.629Z,98688.38
2022-10-28T16:21:17.874Z,98687.81
2022-10-28T16:23:48.354Z,98662.34
2022-10-28T16:26:15.474Z,98676.97
2022-10-28T16:28:45.291Z,98682.38
2022-10-28T16:31:16.300Z,98675.06
2022-10-28T16:33:43.517Z,98648.28
2022-10-28T16:36:10.376Z,98669.66
2022-10-28T16:38:37.403Z,98662.88
2022-10-28T16:41:05.750Z,98693.22
2022-10-28T16:43:32.679Z,98672.22
2022-10-28T16:46:00.397Z,98694.78
2022-10-28T16:48:29.297Z,98685.59
2022-10-28T16:51:00.741Z,98688.81
2022-10-28T16:53:28.294Z,98698.75
2022-10-28T16:55:58.925Z,98712.84
2022-10-28T16:58:27.157Z,98688.44
2022-10-28T17:00:54.228Z,98632.38
2022-10-28T17:03:21.116Z,98600.91
2022-10-28T17:05:47.759Z,98664.78
2022-10-28T17:08:14.943Z,98710.03
2022-10-28T17:10:42.462Z,98712.47
2022-10-28T17:13:13.803Z,98711.88
2022-10-28T17:15:41.375Z,98713.97
2022-10-28T17:18:10.957Z,98721.25
2022-10-28T17:20:37.522Z,98649.41
2022-10-28T17:23:05.525Z,98729.88
2022-10-28T17:25:32.110Z,98693.66
2022-10-28T17:27:58.908Z,98628.34
2022-10-28T17:30:26.738Z,98695.34
2022-10-28T17:32:54.233Z,98714.28
2022-10-28T17:35:22.308Z,98728.94
2022-10-28T17:37:52.142Z,98718.06
2022-10-28T17:40:18.988Z,98663.88
2022-10-28T17:42:45.848Z,98649.00
2022-10-28T17:45:14.434Z,98625.66
2022-10-28T17:47:44.322Z,98706.19
2022-10-28T17:50:11.079Z,98720.75
2022-10-28T17:52:38.660Z,98739.72
2022-10-28T17:55:06.087Z,98743.16
2022-10-28T17:57:32.576Z,98726.56
2022-10-28T17:59:59.363Z,98746.75
2022-10-28T18:02:26.161Z,98704.09
2022-10-28T18:04:52.759Z,98732.06
2022-10-28T18:07:19.467Z,98756.25
2022-10-28T18:09:46.030Z,98640.84
2022-10-28T18:12:13.702Z,98757.31
2022-10-28T18:14:40.189Z,98631.63
2022-10-28T18:17:06.778Z,98638.16
2022-10-28T18:19:33.716Z,98685.41
2022-10-28T18:22:00.313Z,98626.13
2022-10-28T18:24:26.840Z,98706.28
2022-10-28T18:26:54.279Z,98564.06
2022-10-28T18:29:20.743Z,98682.13
2022-10-28T18:31:47.447Z,98699.38
2022-10-28T18:34:14.177Z,98744.25
2022-10-28T18:36:40.840Z,98739.16
2022-10-28T18:39:08.134Z,98740.47
2022-10-28T18:41:40.202Z,98687.06
2022-10-28T18:44:11.492Z,98747.81
2022-10-28T18:46:38.300Z,98714.50
2022-10-28T18:49:07.754Z,98755.00
2022-10-28T18:51:34.872Z,98759.00
2022-10-28T18:54:01.628Z,98681.44
2022-10-28T18:56:29.561Z,98757.28
2022-10-28T18:58:57.632Z,98731.75
2022-10-28T19:01:26.939Z,98725.94
2022-10-28T19:03:56.813Z,98758.28
2022-10-28T19:06:24.590Z,98720.66
2022-10-28T19:08:56.185Z,98722.81
2022-10-28T19:11:30.774Z,98766.63
2022-10-28T19:13:59.623Z,98744.44
2022-10-28T19:16:27.596Z,98678.63
2022-10-28T19:18:58.427Z,98758.09
2022-10-28T19:21:26.516Z,98719.91
2022-10-28T19:23:55.060Z,98731.88
2022-10-28T19:26:23.208Z,98760.56
2022-10-28T19:28:51.832Z,98719.81
2022-10-28T19:31:21.039Z,98775.66
2022-10-28T19:33:48.014Z,98769.41
2022-10-28T19:36:15.592Z,98765.56
2022-10-28T19:38:42.166Z,98724.66
2022-10-28T19:41:12.842Z,98670.94
2022-10-28T19:43:40.881Z,98765.06
2022-10-28T19:46:13.688Z,98698.91
2022-10-28T19:48:42.191Z,98759.47
2022-10-28T19:51:13.687Z,98756.19
2022-10-28T19:53:40.518Z,98711.69
2022-10-28T19:56:07.837Z,98738.75
2022-10-28T19:58:35.141Z,98649.72
2022-10-28T20:01:04.684Z,98765.81
2022-10-28T20:03:34.578Z,98770.09
2022-10-28T20:06:06.176Z,98766.84
2022-10-28T20:08:37.968Z,98772.75
2022-10-28T20:11:11.683Z,98787.00
2022-10-28T20:13:39.060Z,98782.00
2022-10-28T20:16:09.580Z,98716.34
2022-10-28T20:18:36.788Z,98744.53
2022-10-28T20:21:09.474Z,98780.59
2022-10-28T20:23:35.990Z,98785.38
2022-10-28T20:26:04.022Z,98779.97
2022-10-28T20:28:30.770Z,98790.56
2022-10-28T20:31:02.903Z,98773.75
2022-10-28T20:33:30.612Z,98790.69
2022-10-28T20:35:58.103Z,98799.06
2022-10-28T20:38:25.509Z,98796.81
2022-10-28T20:40:55.424Z,98799.88
2022-10-28T20:43:23.656Z,98805.75
2022-10-28T20:45:53.132Z,98799.25
2022-10-28T20:48:20.822Z,98812.72
2022-10-28T20:50:55.522Z,98830.00
2022-10-28T20:53:23.376Z,98820.38
2022-10-28T20:55:51.554Z,98823.91
2022-10-28T20:58:19.399Z,98830.31
2022-10-28T21:00:46.140Z,98829.75
2022-10-28T21:03:13.176Z,98836.28
2022-10-28T21:05:40.549Z,98832.38
2022-10-28T21:08:07.097Z,98834.00
2022-10-28T21:10:35.058Z,98831.66
2022-10-28T21:13:01.960Z,98847.38
2022-10-28T21:15:28.650Z,98839.66
2022-10-28T21:17:55.537Z,98843.72
2022-10-28T21:20:22.423Z,98835.38
2022-10-28T21:22:49.232Z,98846.72
2022-10-28T21:25:15.831Z,98845.34
2022-10-28T21:27:42.354Z,98850.28
2022-10-28T21:30:09.856Z,98847.19
2022-10-28T21:32:37.159Z,98859.66
2022-10-28T21:35:05.716Z,98856.66
2022-10-28T21:37:33.078Z,98861.28
2022-10-28T21:40:01.174Z,98859.16
2022-10-28T21:42:27.809Z,98858.69
2022-10-28T21:44:54.321Z,98861.59
2022-10-28T21:49:52.195Z,98858.81
2022-10-28T21:52:19.046Z,98868.75
2022-10-28T21:54:45.675Z,98866.41
2022-10-28T21:57:12.874Z,98865.72
2022-10-28T21:59:39.290Z,98867.25
2022-10-28T22:02:05.855Z,98861.56
2022-10-28T22:04:32.434Z,98856.09
2022-10-28T22:06:59.009Z,98855.97
2022-10-28T22:09:25.396Z,98851.91
2022-10-28T22:11:51.874Z,98844.34
2022-10-28T22:14:18.574Z,98848.06
2022-10-28T22:16:45.028Z,98852.09
2022-10-28T22:19:14.622Z,98850.22
2022-10-28T22:21:41.069Z,98848.53
2022-10-28T22:24:08.099Z,98843.50
2022-10-28T22:26:34.822Z,98847.72
2022-10-28T22:29:01.508Z,98851.44
2022-10-28T22:31:31.332Z,98847.78
2022-10-28T22:33:58.552Z,98845.47
2022-10-28T22:36:27.784Z,98839.97
2022-10-28T22:38:54.389Z,98833.81
2022-10-28T22:41:23.072Z,98836.16
2022-10-28T22:43:52.490Z,98828.91
2022-10-28T22:46:19.510Z,98823.19
2022-10-28T22:48:46.755Z,98824.97
2022-10-28T22:51:13.687Z,98822.97
2022-10-28T22:53:40.473Z,98828.13
2022-10-28T22:56:10.750Z,98824.97
2022-10-28T22:58:37.185Z,98832.66
2022-10-28T23:01:16.288Z,98831.25
2022-10-28T23:03:45.617Z,98824.94
2022-10-28T23:06:14.213Z,98830.91
2022-10-28T23:08:42.391Z,98825.88
2022-10-28T23:11:13.687Z,98825.88
2022-10-28T23:13:40.153Z,98825.31
2022-10-28T23:16:08.925Z,98828.09
2022-10-28T23:18:35.669Z,98823.72
2022-10-28T23:21:28.500Z,98827.41
2022-10-28T23:23:57.053Z,98822.78
2022-10-28T23:26:24.465Z,98827.81
2022-10-28T23:28:53.269Z,98825.25
2022-10-28T23:31:20.938Z,98822.56
2022-10-28T23:33:47.683Z,98819.25
2022-10-28T23:36:15.791Z,98825.56
2022-10-28T23:38:42.291Z,98821.81
2022-10-28T23:41:15.987Z,98819.28
2022-10-28T23:43:42.788Z,98824.63
2022-10-28T23:46:10.151Z,98820.72
2022-10-28T23:48:36.786Z,98829.66
2022-10-28T23:51:03.648Z,98833.06
2022-10-28T23:53:30.621Z,98827.22
2022-10-28T23:55:57.629Z,98825.69
2022-10-28T23:58:24.124Z,98825.38
